sensor_id;sensor_type;location;lat;lon;timestamp;pressure;altitude;pressure_sealevel;temperature;humidity
71222;BME280;58965;59.324;18.268;2022-07-18T00:01:58;101248.07;;;13.13;22.65
71222;BME280;58965;59.324;18.268;2022-07-18T00:04:22;101247.87;;;12.13;23.40
71222;BME280;58965;59.324;18.268;2022-07-18T00:06:46;101248.80;;;12.86;23.20
71222;BME280;58965;59.324;18.268;2022-07-18T00:09:12;101250.96;;;12.50;23.31
71222;BME280;58965;59.324;18.268;2022-07-18T00:11:37;101246.42;;;14.05;22.43
71222;BME280;58965;59.324;18.268;2022-07-18T00:14:02;101245.10;;;13.98;22.26
71222;BME280;58965;59.324;18.268;2022-07-18T00:16:27;101246.01;;;13.09;22.78
71222;BME280;58965;59.324;18.268;2022-07-18T00:18:52;101242.78;;;13.12;22.74
71222;BME280;58965;59.324;18.268;2022-07-18T00:21:17;101243.26;;;13.33;22.91
71222;BME280;58965;59.324;18.268;2022-07-18T00:23:42;101244.10;;;13.35;22.62
71222;BME280;58965;59.324;18.268;2022-07-18T00:26:07;101243.18;;;13.32;22.55
71222;BME280;58965;59.324;18.268;2022-07-18T00:28:33;101244.57;;;13.45;22.94
71222;BME280;58965;59.324;18.268;2022-07-18T00:30:58;101244.74;;;13.39;22.70
71222;BME280;58965;59.324;18.268;2022-07-18T00:33:23;101244.53;;;13.06;23.17
71222;BME280;58965;59.324;18.268;2022-07-18T00:35:48;101244.88;;;12.70;23.48
71222;BME280;58965;59.324;18.268;2022-07-18T00:38:13;101242.27;;;12.59;23.36
71222;BME280;58965;59.324;18.268;2022-07-18T00:40:38;101242.92;;;13.04;22.98
71222;BME280;58965;59.324;18.268;2022-07-18T00:43:03;101238.76;;;12.81;23.46
71222;BME280;58965;59.324;18.268;2022-07-18T00:45:29;101236.88;;;13.07;22.97
71222;BME280;58965;59.324;18.268;2022-07-18T00:47:53;101237.94;;;12.94;23.35
71222;BME280;58965;59.324;18.268;2022-07-18T00:50:19;101238.16;;;13.25;23.07
71222;BME280;58965;59.324;18.268;2022-07-18T00:52:44;101238.36;;;13.82;22.74
71222;BME280;58965;59.324;18.268;2022-07-18T00:55:09;101238.83;;;11.91;23.41
71222;BME280;58965;59.324;18.268;2022-07-18T00:57:34;101240.44;;;13.42;22.81
71222;BME280;58965;59.324;18.268;2022-07-18T00:59:59;101238.91;;;12.88;23.04
71222;BME280;58965;59.324;18.268;2022-07-18T01:02:24;101238.28;;;12.95;22.96
71222;BME280;58965;59.324;18.268;2022-07-18T01:04:49;101235.79;;;12.96;23.25
71222;BME280;58965;59.324;18.268;2022-07-18T01:07:14;101234.66;;;12.28;23.37
71222;BME280;58965;59.324;18.268;2022-07-18T01:09:39;101236.07;;;12.81;23.03
71222;BME280;58965;59.324;18.268;2022-07-18T01:12:05;101234.90;;;12.47;23.32
71222;BME280;58965;59.324;18.268;2022-07-18T01:14:30;101232.65;;;13.73;22.82
71222;BME280;58965;59.324;18.268;2022-07-18T01:16:54;101232.11;;;12.94;23.04
71222;BME280;58965;59.324;18.268;2022-07-18T01:19:20;101231.55;;;13.20;23.04
71222;BME280;58965;59.324;18.268;2022-07-18T01:21:45;101232.56;;;13.11;22.98
71222;BME280;58965;59.324;18.268;2022-07-18T01:24:10;101232.27;;;12.86;23.00
71222;BME280;58965;59.324;18.268;2022-07-18T01:26:35;101234.99;;;12.89;23.46
71222;BME280;58965;59.324;18.268;2022-07-18T01:29:00;101236.89;;;13.67;22.78
71222;BME280;58965;59.324;18.268;2022-07-18T01:31:25;101238.58;;;12.53;23.28
71222;BME280;58965;59.324;18.268;2022-07-18T01:33:54;101236.10;;;13.52;22.69
71222;BME280;58965;59.324;18.268;2022-07-18T01:36:15;101239.18;;;13.53;22.79
71222;BME280;58965;59.324;18.268;2022-07-18T01:38:40;101238.46;;;13.17;22.76
71222;BME280;58965;59.324;18.268;2022-07-18T01:41:06;101239.55;;;12.64;22.90
71222;BME280;58965;59.324;18.268;2022-07-18T01:43:31;101240.70;;;12.86;23.14
71222;BME280;58965;59.324;18.268;2022-07-18T01:45:56;101239.61;;;13.88;22.70
71222;BME280;58965;59.324;18.268;2022-07-18T01:48:22;101240.27;;;13.12;22.97
71222;BME280;58965;59.324;18.268;2022-07-18T01:50:46;101242.15;;;13.14;22.91
71222;BME280;58965;59.324;18.268;2022-07-18T01:53:11;101242.04;;;13.71;22.76
71222;BME280;58965;59.324;18.268;2022-07-18T01:55:36;101240.48;;;13.84;22.40
71222;BME280;58965;59.324;18.268;2022-07-18T01:58:01;101238.72;;;13.40;22.84
71222;BME280;58965;59.324;18.268;2022-07-18T02:00:26;101235.08;;;13.92;22.53
71222;BME280;58965;59.324;18.268;2022-07-18T02:02:51;101235.72;;;13.99;22.27
71222;BME280;58965;59.324;18.268;2022-07-18T02:05:16;101237.91;;;13.25;23.14
71222;BME280;58965;59.324;18.268;2022-07-18T02:07:42;101243.31;;;13.84;22.64
71222;BME280;58965;59.324;18.268;2022-07-18T02:10:09;101248.05;;;12.37;23.36
71222;BME280;58965;59.324;18.268;2022-07-18T02:12:32;101247.25;;;13.29;22.67
71222;BME280;58965;59.324;18.268;2022-07-18T02:14:57;101243.70;;;14.93;22.05
71222;BME280;58965;59.324;18.268;2022-07-18T02:17:22;101245.03;;;14.18;22.78
71222;BME280;58965;59.324;18.268;2022-07-18T02:19:47;101245.17;;;13.38;22.92
71222;BME280;58965;59.324;18.268;2022-07-18T02:22:12;101238.94;;;13.73;22.65
71222;BME280;58965;59.324;18.268;2022-07-18T02:24:37;101239.19;;;12.74;23.42
71222;BME280;58965;59.324;18.268;2022-07-18T02:27:03;101234.75;;;14.32;22.62
71222;BME280;58965;59.324;18.268;2022-07-18T02:29:27;101234.03;;;13.45;22.98
71222;BME280;58965;59.324;18.268;2022-07-18T02:31:53;101232.06;;;13.36;23.00
71222;BME280;58965;59.324;18.268;2022-07-18T02:34:18;101233.57;;;14.14;22.51
71222;BME280;58965;59.324;18.268;2022-07-18T02:36:43;101232.74;;;12.25;23.89
71222;BME280;58965;59.324;18.268;2022-07-18T02:39:09;101232.25;;;12.60;23.44
71222;BME280;58965;59.324;18.268;2022-07-18T02:41:34;101230.43;;;12.93;23.40
71222;BME280;58965;59.324;18.268;2022-07-18T02:43:59;101223.19;;;13.58;22.85
71222;BME280;58965;59.324;18.268;2022-07-18T02:46:24;101222.32;;;13.89;22.80
71222;BME280;58965;59.324;18.268;2022-07-18T02:48:48;101221.74;;;13.91;22.84
71222;BME280;58965;59.324;18.268;2022-07-18T02:51:13;101220.86;;;13.52;23.10
71222;BME280;58965;59.324;18.268;2022-07-18T02:53:38;101221.76;;;13.76;22.77
71222;BME280;58965;59.324;18.268;2022-07-18T02:56:04;101224.22;;;13.65;22.62
71222;BME280;58965;59.324;18.268;2022-07-18T02:58:29;101223.50;;;12.48;23.73
71222;BME280;58965;59.324;18.268;2022-07-18T03:00:54;101220.65;;;13.54;22.97
71222;BME280;58965;59.324;18.268;2022-07-18T03:03:19;101220.73;;;13.59;22.96
71222;BME280;58965;59.324;18.268;2022-07-18T03:05:44;101223.70;;;14.22;22.77
71222;BME280;58965;59.324;18.268;2022-07-18T03:08:09;101224.50;;;13.61;22.94
71222;BME280;58965;59.324;18.268;2022-07-18T03:10:34;101226.30;;;13.23;23.26
71222;BME280;58965;59.324;18.268;2022-07-18T03:12:59;101226.62;;;13.14;23.50
71222;BME280;58965;59.324;18.268;2022-07-18T03:15:25;101229.72;;;14.03;23.00
71222;BME280;58965;59.324;18.268;2022-07-18T03:17:49;101229.51;;;14.21;22.47
71222;BME280;58965;59.324;18.268;2022-07-18T03:20:15;101229.30;;;14.39;22.70
71222;BME280;58965;59.324;18.268;2022-07-18T03:22:40;101232.83;;;13.93;23.14
71222;BME280;58965;59.324;18.268;2022-07-18T03:25:05;101230.35;;;14.65;22.67
71222;BME280;58965;59.324;18.268;2022-07-18T03:27:30;101231.45;;;14.96;22.41
71222;BME280;58965;59.324;18.268;2022-07-18T03:29:55;101229.10;;;13.49;23.37
71222;BME280;58965;59.324;18.268;2022-07-18T03:32:21;101230.26;;;13.07;23.23
71222;BME280;58965;59.324;18.268;2022-07-18T03:34:45;101225.08;;;14.07;22.87
71222;BME280;58965;59.324;18.268;2022-07-18T03:37:10;101223.35;;;13.65;23.01
71222;BME280;58965;59.324;18.268;2022-07-18T03:39:35;101222.13;;;14.33;22.72
71222;BME280;58965;59.324;18.268;2022-07-18T03:42:00;101222.13;;;13.68;22.86
71222;BME280;58965;59.324;18.268;2022-07-18T03:44:26;101219.45;;;12.54;23.67
71222;BME280;58965;59.324;18.268;2022-07-18T03:46:51;101214.73;;;14.39;23.09
71222;BME280;58965;59.324;18.268;2022-07-18T03:49:16;101215.75;;;13.99;22.69
71222;BME280;58965;59.324;18.268;2022-07-18T03:51:41;101215.65;;;14.25;22.66
71222;BME280;58965;59.324;18.268;2022-07-18T03:54:06;101216.80;;;14.63;22.84
71222;BME280;58965;59.324;18.268;2022-07-18T03:56:31;101216.73;;;15.14;22.44
71222;BME280;58965;59.324;18.268;2022-07-18T03:58:56;101217.61;;;14.02;22.83
71222;BME280;58965;59.324;18.268;2022-07-18T04:01:22;101213.94;;;14.98;22.17
71222;BME280;58965;59.324;18.268;2022-07-18T04:03:46;101212.32;;;15.58;22.02
71222;BME280;58965;59.324;18.268;2022-07-18T04:06:11;101217.50;;;14.49;22.46
71222;BME280;58965;59.324;18.268;2022-07-18T04:08:36;101217.46;;;14.22;22.61
71222;BME280;58965;59.324;18.268;2022-07-18T04:11:02;101211.89;;;14.61;22.63
71222;BME280;58965;59.324;18.268;2022-07-18T04:13:27;101211.68;;;14.80;22.79
71222;BME280;58965;59.324;18.268;2022-07-18T04:15:52;101209.09;;;14.66;22.39
71222;BME280;58965;59.324;18.268;2022-07-18T04:18:17;101213.34;;;14.69;22.52
71222;BME280;58965;59.324;18.268;2022-07-18T04:20:42;101211.64;;;14.61;22.42
71222;BME280;58965;59.324;18.268;2022-07-18T04:23:09;101210.93;;;15.71;22.02
71222;BME280;58965;59.324;18.268;2022-07-18T04:25:38;101213.96;;;13.31;23.62
71222;BME280;58965;59.324;18.268;2022-07-18T04:27:57;101216.15;;;12.32;24.51
71222;BME280;58965;59.324;18.268;2022-07-18T04:30:24;101213.98;;;12.08;24.74
71222;BME280;58965;59.324;18.268;2022-07-18T04:32:48;101211.38;;;11.99;24.37
71222;BME280;58965;59.324;18.268;2022-07-18T04:35:13;101208.81;;;12.56;24.53
71222;BME280;58965;59.324;18.268;2022-07-18T04:37:38;101212.12;;;11.63;24.73
71222;BME280;58965;59.324;18.268;2022-07-18T04:40:04;101211.95;;;11.78;25.03
71222;BME280;58965;59.324;18.268;2022-07-18T04:42:28;101212.77;;;11.96;25.02
71222;BME280;58965;59.324;18.268;2022-07-18T04:44:53;101210.93;;;12.10;24.96
71222;BME280;58965;59.324;18.268;2022-07-18T04:47:18;101212.69;;;12.36;24.95
71222;BME280;58965;59.324;18.268;2022-07-18T04:49:43;101211.59;;;11.94;25.02
71222;BME280;58965;59.324;18.268;2022-07-18T04:52:08;101209.70;;;12.21;25.16
71222;BME280;58965;59.324;18.268;2022-07-18T04:54:33;101211.97;;;11.37;25.22
71222;BME280;58965;59.324;18.268;2022-07-18T04:56:58;101211.44;;;12.07;25.20
71222;BME280;58965;59.324;18.268;2022-07-18T04:59:23;101212.64;;;12.54;25.30
71222;BME280;58965;59.324;18.268;2022-07-18T05:01:48;101209.03;;;11.38;25.35
71222;BME280;58965;59.324;18.268;2022-07-18T05:04:14;101206.33;;;11.75;25.43
71222;BME280;58965;59.324;18.268;2022-07-18T05:06:39;101203.78;;;11.91;25.23
71222;BME280;58965;59.324;18.268;2022-07-18T05:09:04;101202.09;;;12.11;25.38
71222;BME280;58965;59.324;18.268;2022-07-18T05:11:29;101203.34;;;11.83;25.56
71222;BME280;58965;59.324;18.268;2022-07-18T05:13:54;101202.79;;;12.41;25.29
71222;BME280;58965;59.324;18.268;2022-07-18T05:16:19;101206.95;;;11.37;25.54
71222;BME280;58965;59.324;18.268;2022-07-18T05:18:44;101200.75;;;11.71;25.87
71222;BME280;58965;59.324;18.268;2022-07-18T05:21:09;101203.68;;;11.77;25.64
71222;BME280;58965;59.324;18.268;2022-07-18T05:23:34;101204.58;;;12.01;25.70
71222;BME280;58965;59.324;18.268;2022-07-18T05:25:59;101205.51;;;11.74;25.85
71222;BME280;58965;59.324;18.268;2022-07-18T05:28:24;101201.84;;;12.28;26.02
71222;BME280;58965;59.324;18.268;2022-07-18T05:30:50;101199.01;;;11.51;26.15
71222;BME280;58965;59.324;18.268;2022-07-18T05:33:15;101197.07;;;11.86;26.24
71222;BME280;58965;59.324;18.268;2022-07-18T05:35:40;101196.59;;;11.80;26.23
71222;BME280;58965;59.324;18.268;2022-07-18T05:38:05;101201.73;;;11.90;26.14
71222;BME280;58965;59.324;18.268;2022-07-18T05:40:30;101202.21;;;11.96;26.24
71222;BME280;58965;59.324;18.268;2022-07-18T05:42:55;101205.87;;;11.36;26.24
71222;BME280;58965;59.324;18.268;2022-07-18T05:45:21;101206.73;;;11.60;26.43
71222;BME280;58965;59.324;18.268;2022-07-18T05:47:45;101209.69;;;11.57;26.71
71222;BME280;58965;59.324;18.268;2022-07-18T05:50:10;101209.09;;;11.27;26.70
71222;BME280;58965;59.324;18.268;2022-07-18T05:52:36;101209.10;;;11.53;26.69
71222;BME280;58965;59.324;18.268;2022-07-18T05:55:00;101211.81;;;11.08;27.56
71222;BME280;58965;59.324;18.268;2022-07-18T05:57:26;101213.53;;;11.81;27.86
71222;BME280;58965;59.324;18.268;2022-07-18T05:59:50;101209.96;;;12.85;26.75
71222;BME280;58965;59.324;18.268;2022-07-18T06:02:16;101208.74;;;12.83;27.06
71222;BME280;58965;59.324;18.268;2022-07-18T06:04:41;101206.26;;;11.48;27.98
71222;BME280;58965;59.324;18.268;2022-07-18T06:07:06;101200.63;;;11.67;28.17
71222;BME280;58965;59.324;18.268;2022-07-18T06:09:31;101198.48;;;12.67;27.39
71222;BME280;58965;59.324;18.268;2022-07-18T06:11:57;101197.41;;;12.47;26.92
71222;BME280;58965;59.324;18.268;2022-07-18T06:14:22;101197.92;;;12.90;26.92
71222;BME280;58965;59.324;18.268;2022-07-18T06:16:46;101197.20;;;12.30;27.43
71222;BME280;58965;59.324;18.268;2022-07-18T06:19:11;101199.95;;;12.66;27.08
71222;BME280;58965;59.324;18.268;2022-07-18T06:21:36;101200.55;;;13.11;26.99
71222;BME280;58965;59.324;18.268;2022-07-18T06:24:01;101196.74;;;13.62;26.44
71222;BME280;58965;59.324;18.268;2022-07-18T06:26:26;101192.76;;;14.26;25.71
71222;BME280;58965;59.324;18.268;2022-07-18T06:28:51;101201.25;;;14.08;26.24
71222;BME280;58965;59.324;18.268;2022-07-18T06:31:16;101201.56;;;13.20;26.75
71222;BME280;58965;59.324;18.268;2022-07-18T06:33:42;101200.29;;;14.14;26.41
71222;BME280;58965;59.324;18.268;2022-07-18T06:36:07;101198.61;;;14.35;26.16
71222;BME280;58965;59.324;18.268;2022-07-18T06:38:32;101193.84;;;12.09;27.55
71222;BME280;58965;59.324;18.268;2022-07-18T06:40:57;101194.73;;;12.73;27.26
71222;BME280;58965;59.324;18.268;2022-07-18T06:43:22;101191.22;;;13.23;27.04
71222;BME280;58965;59.324;18.268;2022-07-18T06:45:47;101185.81;;;11.97;27.64
71222;BME280;58965;59.324;18.268;2022-07-18T06:48:12;101186.75;;;12.11;28.10
71222;BME280;58965;59.324;18.268;2022-07-18T06:50:37;101188.54;;;12.89;27.50
71222;BME280;58965;59.324;18.268;2022-07-18T06:53:02;101187.36;;;12.73;27.36
71222;BME280;58965;59.324;18.268;2022-07-18T06:55:27;101185.74;;;12.68;27.73
71222;BME280;58965;59.324;18.268;2022-07-18T06:57:52;101189.20;;;11.67;28.28
71222;BME280;58965;59.324;18.268;2022-07-18T07:00:17;101188.55;;;11.46;28.39
71222;BME280;58965;59.324;18.268;2022-07-18T07:02:44;101189.24;;;12.49;27.64
71222;BME280;58965;59.324;18.268;2022-07-18T07:05:08;101181.61;;;12.15;28.03
71222;BME280;58965;59.324;18.268;2022-07-18T07:07:33;101184.08;;;12.26;27.99
71222;BME280;58965;59.324;18.268;2022-07-18T07:09:58;101183.64;;;12.36;27.75
71222;BME280;58965;59.324;18.268;2022-07-18T07:12:23;101180.43;;;12.56;28.33
71222;BME280;58965;59.324;18.268;2022-07-18T07:14:48;101183.64;;;11.37;28.67
71222;BME280;58965;59.324;18.268;2022-07-18T07:17:13;101189.10;;;12.10;28.23
71222;BME280;58965;59.324;18.268;2022-07-18T07:19:38;101188.53;;;12.02;28.57
71222;BME280;58965;59.324;18.268;2022-07-18T07:22:03;101185.33;;;11.32;28.83
71222;BME280;58965;59.324;18.268;2022-07-18T07:24:28;101183.49;;;11.18;28.90
71222;BME280;58965;59.324;18.268;2022-07-18T07:26:53;101180.01;;;11.88;28.68
71222;BME280;58965;59.324;18.268;2022-07-18T07:29:18;101182.25;;;12.13;28.61
71222;BME280;58965;59.324;18.268;2022-07-18T07:31:43;101181.10;;;11.99;28.94
71222;BME280;58965;59.324;18.268;2022-07-18T07:34:09;101180.94;;;11.35;29.05
71222;BME280;58965;59.324;18.268;2022-07-18T07:36:34;101179.74;;;11.39;29.05
71222;BME280;58965;59.324;18.268;2022-07-18T07:38:59;101183.07;;;11.24;28.92
71222;BME280;58965;59.324;18.268;2022-07-18T07:41:24;101188.64;;;11.27;28.89
71222;BME280;58965;59.324;18.268;2022-07-18T07:43:49;101188.56;;;11.77;28.99
71222;BME280;58965;59.324;18.268;2022-07-18T07:46:14;101189.09;;;12.28;28.69
71222;BME280;58965;59.324;18.268;2022-07-18T07:48:39;101185.48;;;11.78;28.94
71222;BME280;58965;59.324;18.268;2022-07-18T07:51:04;101181.95;;;11.92;28.56
71222;BME280;58965;59.324;18.268;2022-07-18T07:53:29;101182.38;;;11.14;28.78
71222;BME280;58965;59.324;18.268;2022-07-18T07:55:54;101180.31;;;11.83;28.78
71222;BME280;58965;59.324;18.268;2022-07-18T07:58:20;101177.50;;;12.00;28.58
71222;BME280;58965;59.324;18.268;2022-07-18T08:00:45;101187.54;;;11.31;28.76
71222;BME280;58965;59.324;18.268;2022-07-18T08:03:10;101186.06;;;12.25;28.92
71222;BME280;58965;59.324;18.268;2022-07-18T08:05:36;101189.22;;;11.76;28.68
71222;BME280;58965;59.324;18.268;2022-07-18T08:08:00;101187.96;;;12.34;28.82
71222;BME280;58965;59.324;18.268;2022-07-18T08:10:26;101192.04;;;11.83;28.97
71222;BME280;58965;59.324;18.268;2022-07-18T08:12:50;101188.01;;;11.56;29.12
71222;BME280;58965;59.324;18.268;2022-07-18T08:15:15;101187.98;;;12.33;28.72
71222;BME280;58965;59.324;18.268;2022-07-18T08:17:40;101192.23;;;11.69;28.98
71222;BME280;58965;59.324;18.268;2022-07-18T08:20:07;101194.83;;;11.30;29.15
71222;BME280;58965;59.324;18.268;2022-07-18T08:22:30;101198.88;;;12.44;28.81
71222;BME280;58965;59.324;18.268;2022-07-18T08:24:55;101189.36;;;11.97;28.78
71222;BME280;58965;59.324;18.268;2022-07-18T08:27:21;101190.07;;;11.71;28.89
71222;BME280;58965;59.324;18.268;2022-07-18T08:29:46;101184.48;;;11.84;28.75
71222;BME280;58965;59.324;18.268;2022-07-18T08:32:11;101181.18;;;11.60;28.77
71222;BME280;58965;59.324;18.268;2022-07-18T08:34:36;101181.08;;;12.13;28.91
71222;BME280;58965;59.324;18.268;2022-07-18T08:37:01;101178.40;;;11.47;29.19
71222;BME280;58965;59.324;18.268;2022-07-18T08:39:26;101176.90;;;11.79;28.85
71222;BME280;58965;59.324;18.268;2022-07-18T08:41:51;101175.14;;;12.33;28.68
71222;BME280;58965;59.324;18.268;2022-07-18T08:44:17;101172.74;;;12.14;28.82
71222;BME280;58965;59.324;18.268;2022-07-18T08:46:45;101171.58;;;11.96;28.77
71222;BME280;58965;59.324;18.268;2022-07-18T08:49:06;101172.05;;;11.96;28.46
71222;BME280;58965;59.324;18.268;2022-07-18T08:51:31;101180.01;;;12.02;28.72
71222;BME280;58965;59.324;18.268;2022-07-18T08:53:57;101182.53;;;12.30;28.35
71222;BME280;58965;59.324;18.268;2022-07-18T08:56:22;101176.68;;;12.01;28.64
71222;BME280;58965;59.324;18.268;2022-07-18T08:58:47;101174.77;;;12.07;28.77
71222;BME280;58965;59.324;18.268;2022-07-18T09:01:12;101174.49;;;12.19;28.50
71222;BME280;58965;59.324;18.268;2022-07-18T09:03:37;101177.01;;;12.61;28.38
71222;BME280;58965;59.324;18.268;2022-07-18T09:06:03;101172.87;;;12.10;28.63
71222;BME280;58965;59.324;18.268;2022-07-18T09:08:27;101178.07;;;12.64;28.21
71222;BME280;58965;59.324;18.268;2022-07-18T09:10:54;101170.94;;;12.60;28.13
71222;BME280;58965;59.324;18.268;2022-07-18T09:13:18;101168.66;;;11.92;28.49
71222;BME280;58965;59.324;18.268;2022-07-18T09:15:57;101168.27;;;11.70;28.48
71222;BME280;58965;59.324;18.268;2022-07-18T09:18:07;101163.20;;;12.63;28.26
71222;BME280;58965;59.324;18.268;2022-07-18T09:20:32;101161.72;;;12.50;28.30
71222;BME280;58965;59.324;18.268;2022-07-18T09:22:57;101170.37;;;12.64;28.08
71222;BME280;58965;59.324;18.268;2022-07-18T09:25:23;101171.39;;;12.89;28.21
71222;BME280;58965;59.324;18.268;2022-07-18T09:27:49;101168.74;;;12.96;27.92
71222;BME280;58965;59.324;18.268;2022-07-18T09:30:21;101175.44;;;13.21;27.88
71222;BME280;58965;59.324;18.268;2022-07-18T09:32:39;101177.08;;;12.83;27.99
71222;BME280;58965;59.324;18.268;2022-07-18T09:35:05;101180.23;;;12.23;28.11
71222;BME280;58965;59.324;18.268;2022-07-18T09:37:28;101181.83;;;12.63;27.84
71222;BME280;58965;59.324;18.268;2022-07-18T09:39:53;101180.86;;;12.74;27.64
71222;BME280;58965;59.324;18.268;2022-07-18T09:42:18;101179.63;;;13.47;27.72
71222;BME280;58965;59.324;18.268;2022-07-18T09:44:57;101178.20;;;12.84;27.70
71222;BME280;58965;59.324;18.268;2022-07-18T09:47:08;101176.89;;;12.48;27.82
71222;BME280;58965;59.324;18.268;2022-07-18T09:49:33;101180.01;;;12.87;27.83
71222;BME280;58965;59.324;18.268;2022-07-18T09:52:05;101187.85;;;13.03;27.91
71222;BME280;58965;59.324;18.268;2022-07-18T09:54:35;101190.03;;;12.79;27.78
71222;BME280;58965;59.324;18.268;2022-07-18T09:56:48;101189.17;;;12.54;27.88
71222;BME280;58965;59.324;18.268;2022-07-18T09:59:14;101191.38;;;12.75;27.93
71222;BME280;58965;59.324;18.268;2022-07-18T10:01:39;101193.46;;;12.84;27.59
71222;BME280;58965;59.324;18.268;2022-07-18T10:04:04;101195.54;;;13.25;27.69
71222;BME280;58965;59.324;18.268;2022-07-18T10:06:29;101195.68;;;12.60;27.73
71222;BME280;58965;59.324;18.268;2022-07-18T10:08:54;101198.77;;;12.62;27.96
71222;BME280;58965;59.324;18.268;2022-07-18T10:11:19;101192.08;;;11.97;27.86
71222;BME280;58965;59.324;18.268;2022-07-18T10:13:44;101195.35;;;11.90;28.00
71222;BME280;58965;59.324;18.268;2022-07-18T10:16:09;101195.92;;;12.18;28.02
71222;BME280;58965;59.324;18.268;2022-07-18T10:18:35;101188.44;;;12.10;28.17
71222;BME280;58965;59.324;18.268;2022-07-18T10:21:05;101192.67;;;12.25;27.71
71222;BME280;58965;59.324;18.268;2022-07-18T10:23:27;101195.98;;;12.81;27.82
71222;BME280;58965;59.324;18.268;2022-07-18T10:26:10;101199.23;;;12.64;27.47
71222;BME280;58965;59.324;18.268;2022-07-18T10:28:14;101202.39;;;13.03;27.30
71222;BME280;58965;59.324;18.268;2022-07-18T10:30:43;101206.93;;;12.55;27.80
71222;BME280;58965;59.324;18.268;2022-07-18T10:33:36;101202.60;;;13.18;27.70
71222;BME280;58965;59.324;18.268;2022-07-18T10:36:03;101201.85;;;13.42;27.30
71222;BME280;58965;59.324;18.268;2022-07-18T10:38:02;101204.92;;;12.83;27.29
71222;BME280;58965;59.324;18.268;2022-07-18T10:40:24;101202.83;;;13.31;27.12
71222;BME280;58965;59.324;18.268;2022-07-18T10:42:45;101200.60;;;13.38;27.25
71222;BME280;58965;59.324;18.268;2022-07-18T10:45:42;101198.71;;;13.24;26.72
71222;BME280;58965;59.324;18.268;2022-07-18T10:47:35;101196.01;;;12.98;26.95
71222;BME280;58965;59.324;18.268;2022-07-18T10:50:04;101194.10;;;13.10;26.66
71222;BME280;58965;59.324;18.268;2022-07-18T10:52:58;101195.10;;;13.69;26.51
71222;BME280;58965;59.324;18.268;2022-07-18T10:55:27;101195.13;;;13.07;26.91
71222;BME280;58965;59.324;18.268;2022-07-18T10:57:15;101188.95;;;12.92;26.68
71222;BME280;58965;59.324;18.268;2022-07-18T11:00:14;101188.48;;;13.00;26.76
71222;BME280;58965;59.324;18.268;2022-07-18T11:02:07;101187.68;;;13.29;26.61
71222;BME280;58965;59.324;18.268;2022-07-18T11:04:36;101189.46;;;13.38;26.72
71222;BME280;58965;59.324;18.268;2022-07-18T11:07:03;101189.25;;;13.34;26.52
71222;BME280;58965;59.324;18.268;2022-07-18T11:09:39;101188.57;;;13.72;26.57
71222;BME280;58965;59.324;18.268;2022-07-18T11:12:17;101181.98;;;12.82;26.64
71222;BME280;58965;59.324;18.268;2022-07-18T11:15:13;101174.03;;;13.23;26.64
71222;BME280;58965;59.324;18.268;2022-07-18T11:16:36;101175.28;;;13.16;26.47
71222;BME280;58965;59.324;18.268;2022-07-18T11:19:18;101175.17;;;12.97;26.57
71222;BME280;58965;59.324;18.268;2022-07-18T11:21:28;101172.75;;;12.95;26.49
71222;BME280;58965;59.324;18.268;2022-07-18T11:23:53;101175.33;;;13.36;26.35
71222;BME280;58965;59.324;18.268;2022-07-18T11:26:17;101178.17;;;13.19;26.22
71222;BME280;58965;59.324;18.268;2022-07-18T11:28:42;101182.68;;;13.43;25.92
71222;BME280;58965;59.324;18.268;2022-07-18T11:31:08;101184.67;;;14.13;25.95
71222;BME280;58965;59.324;18.268;2022-07-18T11:33:34;101182.72;;;12.90;26.28
71222;BME280;58965;59.324;18.268;2022-07-18T11:36:03;101181.04;;;12.96;26.25
71222;BME280;58965;59.324;18.268;2022-07-18T11:38:22;101177.42;;;12.51;26.51
71222;BME280;58965;59.324;18.268;2022-07-18T11:40:49;101172.53;;;13.31;25.87
71222;BME280;58965;59.324;18.268;2022-07-18T11:43:19;101166.39;;;12.50;26.43
71222;BME280;58965;59.324;18.268;2022-07-18T11:45:38;101163.90;;;13.16;26.23
71222;BME280;58965;59.324;18.268;2022-07-18T11:48:03;101159.01;;;13.07;26.26
71222;BME280;58965;59.324;18.268;2022-07-18T11:50:35;101156.85;;;12.67;26.43
71222;BME280;58965;59.324;18.268;2022-07-18T11:52:56;101155.22;;;12.22;26.71
71222;BME280;58965;59.324;18.268;2022-07-18T11:55:31;101155.68;;;13.26;26.05
71222;BME280;58965;59.324;18.268;2022-07-18T11:57:43;101156.62;;;12.52;26.68
71222;BME280;58965;59.324;18.268;2022-07-18T12:00:18;101156.25;;;13.15;26.18
71222;BME280;58965;59.324;18.268;2022-07-18T12:03:08;101155.67;;;12.82;26.24
71222;BME280;58965;59.324;18.268;2022-07-18T12:04:58;101155.75;;;13.56;25.83
71222;BME280;58965;59.324;18.268;2022-07-18T12:07:24;101153.23;;;13.06;25.95
71222;BME280;58965;59.324;18.268;2022-07-18T12:09:50;101150.98;;;13.14;26.07
71222;BME280;58965;59.324;18.268;2022-07-18T12:12:16;101149.57;;;13.51;25.70
71222;BME280;58965;59.324;18.268;2022-07-18T12:14:39;101148.08;;;13.17;25.91
71222;BME280;58965;59.324;18.268;2022-07-18T12:17:04;101141.99;;;13.32;25.49
71222;BME280;58965;59.324;18.268;2022-07-18T12:19:33;101152.67;;;13.60;25.67
71222;BME280;58965;59.324;18.268;2022-07-18T12:21:59;101155.30;;;13.12;25.79
71222;BME280;58965;59.324;18.268;2022-07-18T12:24:24;101153.21;;;13.98;25.67
71222;BME280;58965;59.324;18.268;2022-07-18T12:26:44;101153.72;;;12.56;25.88
71222;BME280;58965;59.324;18.268;2022-07-18T12:29:10;101152.69;;;13.47;25.64